sensor_id;sensor_type;location;lat;lon;timestamp;temperature;humidity
31046;DHT22;17711;54.018;9.300;2023-05-07T00:01:30;10.20;99.90
31046;DHT22;17711;54.018;9.300;2023-05-07T00:03:59;10.20;99.90
31046;DHT22;17711;54.018;9.300;2023-05-07T00:06:29;10.20;99.90
31046;DHT22;17711;54.018;9.300;2023-05-07T00:08:57;10.30;99.90
31046;DHT22;17711;54.018;9.300;2023-05-07T00:11:28;10.30;99.90
31046;DHT22;17711;54.018;9.300;2023-05-07T00:13:56;10.30;99.90
31046;DHT22;17711;54.018;9.300;2023-05-07T00:16:25;10.30;99.90
31046;DHT22;17711;54.018;9.300;2023-05-07T00:18:53;10.30;99.90
31046;DHT22;17711;54.018;9.300;2023-05-07T00:21:23;10.30;99.90
31046;DHT22;17711;54.018;9.300;2023-05-07T00:23:53;10.20;99.90
31046;DHT22;17711;54.018;9.300;2023-05-07T00:26:22;10.30;99.90
31046;DHT22;17711;54.018;9.300;2023-05-07T00:28:51;10.30;99.90
31046;DHT22;17711;54.018;9.300;2023-05-07T00:31:19;10.30;99.90
31046;DHT22;17711;54.018;9.300;2023-05-07T00:33:48;10.30;99.90
31046;DHT22;17711;54.018;9.300;2023-05-07T00:36:16;10.30;99.90
31046;DHT22;17711;54.018;9.300;2023-05-07T00:38:46;10.30;99.90
31046;DHT22;17711;54.018;9.300;2023-05-07T00:41:15;10.30;99.90
31046;DHT22;17711;54.018;9.300;2023-05-07T00:43:44;10.30;99.90
31046;DHT22;17711;54.018;9.300;2023-05-07T00:46:13;10.30;99.90
31046;DHT22;17711;54.018;9.300;2023-05-07T00:48:43;10.30;99.90
31046;DHT22;17711;54.018;9.300;2023-05-07T00:51:12;10.30;99.90
31046;DHT22;17711;54.018;9.300;2023-05-07T00:53:40;10.30;99.90
31046;DHT22;17711;54.018;9.300;2023-05-07T00:56:11;10.30;99.90
31046;DHT22;17711;54.018;9.300;2023-05-07T00:58:40;10.30;99.90
31046;DHT22;17711;54.018;9.300;2023-05-07T01:01:09;10.30;99.90
31046;DHT22;17711;54.018;9.300;2023-05-07T01:03:38;10.30;99.90
31046;DHT22;17711;54.018;9.300;2023-05-07T01:06:07;10.30;99.90
31046;DHT22;17711;54.018;9.300;2023-05-07T01:08:39;10.30;99.90
31046;DHT22;17711;54.018;9.300;2023-05-07T01:11:11;10.30;99.90
31046;DHT22;17711;54.018;9.300;2023-05-07T01:13:40;10.30;99.90
31046;DHT22;17711;54.018;9.300;2023-05-07T01:16:10;10.30;99.90
31046;DHT22;17711;54.018;9.300;2023-05-07T01:18:38;10.30;99.90
31046;DHT22;17711;54.018;9.300;2023-05-07T01:21:07;10.30;99.90
31046;DHT22;17711;54.018;9.300;2023-05-07T01:23:41;10.30;99.90
31046;DHT22;17711;54.018;9.300;2023-05-07T01:26:09;10.30;99.90
31046;DHT22;17711;54.018;9.300;2023-05-07T01:28:38;10.30;99.90
31046;DHT22;17711;54.018;9.300;2023-05-07T01:31:08;10.30;99.90
31046;DHT22;17711;54.018;9.300;2023-05-07T01:33:38;10.30;99.90
31046;DHT22;17711;54.018;9.300;2023-05-07T01:36:09;10.30;99.90
31046;DHT22;17711;54.018;9.300;2023-05-07T01:38:41;10.30;99.90
31046;DHT22;17711;54.018;9.300;2023-05-07T01:41:10;10.30;99.90
31046;DHT22;17711;54.018;9.300;2023-05-07T01:43:40;10.30;99.90
31046;DHT22;17711;54.018;9.300;2023-05-07T01:46:10;10.30;99.90
31046;DHT22;17711;54.018;9.300;2023-05-07T01:48:39;10.30;99.90
31046;DHT22;17711;54.018;9.300;2023-05-07T01:51:08;10.30;99.90
31046;DHT22;17711;54.018;9.300;2023-05-07T01:53:37;10.30;99.90
31046;DHT22;17711;54.018;9.300;2023-05-07T01:56:09;10.30;99.90
31046;DHT22;17711;54.018;9.300;2023-05-07T01:58:37;10.30;99.90
31046;DHT22;17711;54.018;9.300;2023-05-07T02:01:06;10.30;99.90
31046;DHT22;17711;54.018;9.300;2023-05-07T02:03:34;10.30;99.90
31046;DHT22;17711;54.018;9.300;2023-05-07T02:06:04;10.30;99.90
31046;DHT22;17711;54.018;9.300;2023-05-07T02:08:33;10.30;99.90
31046;DHT22;17711;54.018;9.300;2023-05-07T02:11:02;10.20;99.90
31046;DHT22;17711;54.018;9.300;2023-05-07T02:13:33;10.20;99.90
31046;DHT22;17711;54.018;9.300;2023-05-07T02:16:03;10.30;99.90
31046;DHT22;17711;54.018;9.300;2023-05-07T02:18:32;10.30;99.90
31046;DHT22;17711;54.018;9.300;2023-05-07T02:21:01;10.30;99.90
31046;DHT22;17711;54.018;9.300;2023-05-07T02:23:29;10.20;99.90
31046;DHT22;17711;54.018;9.300;2023-05-07T02:25:58;10.30;99.90
31046;DHT22;17711;54.018;9.300;2023-05-07T02:28:26;10.30;99.90
31046;DHT22;17711;54.018;9.300;2023-05-07T02:30:56;10.30;99.90
31046;DHT22;17711;54.018;9.300;2023-05-07T02:33:25;10.30;99.90
31046;DHT22;17711;54.018;9.300;2023-05-07T02:35:54;10.30;99.90
31046;DHT22;17711;54.018;9.300;2023-05-07T02:38:23;10.30;99.90
31046;DHT22;17711;54.018;9.300;2023-05-07T02:40:52;10.30;99.90
31046;DHT22;17711;54.018;9.300;2023-05-07T02:43:20;10.30;99.90
31046;DHT22;17711;54.018;9.300;2023-05-07T02:45:48;10.30;99.90
31046;DHT22;17711;54.018;9.300;2023-05-07T02:48:18;10.20;99.90
31046;DHT22;17711;54.018;9.300;2023-05-07T02:50:47;10.30;99.90
31046;DHT22;17711;54.018;9.300;2023-05-07T02:53:15;10.30;99.90
31046;DHT22;17711;54.018;9.300;2023-05-07T02:55:44;10.30;99.90
31046;DHT22;17711;54.018;9.300;2023-05-07T02:58:12;10.20;99.90
31046;DHT22;17711;54.018;9.300;2023-05-07T03:00:41;10.20;99.90
31046;DHT22;17711;54.018;9.300;2023-05-07T03:03:09;10.30;99.90
31046;DHT22;17711;54.018;9.300;2023-05-07T03:05:39;10.20;99.90
31046;DHT22;17711;54.018;9.300;2023-05-07T03:08:08;10.20;99.90
31046;DHT22;17711;54.018;9.300;2023-05-07T03:10:37;10.20;99.90
31046;DHT22;17711;54.018;9.300;2023-05-07T03:13:06;10.20;99.90
31046;DHT22;17711;54.018;9.300;2023-05-07T03:15:34;10.20;99.90
31046;DHT22;17711;54.018;9.300;2023-05-07T03:18:03;10.10;99.90
31046;DHT22;17711;54.018;9.300;2023-05-07T03:20:32;10.20;99.90
31046;DHT22;17711;54.018;9.300;2023-05-07T03:23:02;10.20;99.90
31046;DHT22;17711;54.018;9.300;2023-05-07T03:25:31;10.20;99.90
31046;DHT22;17711;54.018;9.300;2023-05-07T03:28:00;10.20;99.90
31046;DHT22;17711;54.018;9.300;2023-05-07T03:30:29;10.20;99.90
31046;DHT22;17711;54.018;9.300;2023-05-07T03:32:57;10.20;99.90
31046;DHT22;17711;54.018;9.300;2023-05-07T03:35:26;10.20;99.90
31046;DHT22;17711;54.018;9.300;2023-05-07T03:37:55;10.20;99.90
31046;DHT22;17711;54.018;9.300;2023-05-07T03:40:24;10.20;99.90
31046;DHT22;17711;54.018;9.300;2023-05-07T03:42:53;10.20;99.90
31046;DHT22;17711;54.018;9.300;2023-05-07T03:45:22;10.20;99.90
31046;DHT22;17711;54.018;9.300;2023-05-07T03:47:50;10.20;99.90
31046;DHT22;17711;54.018;9.300;2023-05-07T03:50:20;10.20;99.90
31046;DHT22;17711;54.018;9.300;2023-05-07T03:52:48;10.10;99.90
31046;DHT22;17711;54.018;9.300;2023-05-07T03:55:17;10.20;99.90
31046;DHT22;17711;54.018;9.300;2023-05-07T03:57:47;10.20;99.90
31046;DHT22;17711;54.018;9.300;2023-05-07T04:00:16;10.20;99.90
31046;DHT22;17711;54.018;9.300;2023-05-07T04:02:48;10.20;99.90
31046;DHT22;17711;54.018;9.300;2023-05-07T04:05:17;10.10;99.90
31046;DHT22;17711;54.018;9.300;2023-05-07T04:07:45;10.10;99.90
31046;DHT22;17711;54.018;9.300;2023-05-07T04:10:14;10.10;99.90
31046;DHT22;17711;54.018;9.300;2023-05-07T04:12:42;10.10;99.90
31046;DHT22;17711;54.018;9.300;2023-05-07T04:15:12;10.10;99.90
31046;DHT22;17711;54.018;9.300;2023-05-07T04:17:41;10.00;99.90
31046;DHT22;17711;54.018;9.300;2023-05-07T04:20:14;10.10;99.90
31046;DHT22;17711;54.018;9.300;2023-05-07T04:22:43;10.10;99.90
31046;DHT22;17711;54.018;9.300;2023-05-07T04:25:12;10.10;99.90
31046;DHT22;17711;54.018;9.300;2023-05-07T04:27:40;10.10;99.90
31046;DHT22;17711;54.018;9.300;2023-05-07T04:30:10;10.10;99.90
31046;DHT22;17711;54.018;9.300;2023-05-07T04:32:40;10.10;99.90
31046;DHT22;17711;54.018;9.300;2023-05-07T04:35:09;10.10;99.90
31046;DHT22;17711;54.018;9.300;2023-05-07T04:37:38;10.10;99.90
31046;DHT22;17711;54.018;9.300;2023-05-07T04:40:07;10.10;99.90
31046;DHT22;17711;54.018;9.300;2023-05-07T04:42:37;10.10;99.90
31046;DHT22;17711;54.018;9.300;2023-05-07T04:45:06;10.10;99.90
31046;DHT22;17711;54.018;9.300;2023-05-07T04:47:35;10.10;99.90
31046;DHT22;17711;54.018;9.300;2023-05-07T04:50:07;10.10;99.90
31046;DHT22;17711;54.018;9.300;2023-05-07T04:52:36;10.10;99.90
31046;DHT22;17711;54.018;9.300;2023-05-07T04:55:05;10.10;99.90
31046;DHT22;17711;54.018;9.300;2023-05-07T04:57:34;10.00;99.90
31046;DHT22;17711;54.018;9.300;2023-05-07T05:00:03;10.10;99.90
31046;DHT22;17711;54.018;9.300;2023-05-07T05:02:37;10.00;99.90
31046;DHT22;17711;54.018;9.300;2023-05-07T05:05:08;10.10;99.90
31046;DHT22;17711;54.018;9.300;2023-05-07T05:07:37;10.10;99.90
31046;DHT22;17711;54.018;9.300;2023-05-07T05:10:06;10.20;99.90
31046;DHT22;17711;54.018;9.300;2023-05-07T05:12:35;10.20;99.90
31046;DHT22;17711;54.018;9.300;2023-05-07T05:15:04;10.30;99.90
31046;DHT22;17711;54.018;9.300;2023-05-07T05:17:33;10.30;99.90
31046;DHT22;17711;54.018;9.300;2023-05-07T05:20:02;10.30;99.90
31046;DHT22;17711;54.018;9.300;2023-05-07T05:22:33;10.40;99.90
31046;DHT22;17711;54.018;9.300;2023-05-07T05:25:02;10.50;99.90
31046;DHT22;17711;54.018;9.300;2023-05-07T05:27:31;10.50;99.90
31046;DHT22;17711;54.018;9.300;2023-05-07T05:29:59;10.50;99.90
31046;DHT22;17711;54.018;9.300;2023-05-07T05:32:28;10.50;99.90
31046;DHT22;17711;54.018;9.300;2023-05-07T05:34:56;10.50;99.90
31046;DHT22;17711;54.018;9.300;2023-05-07T05:37:25;10.50;99.90
31046;DHT22;17711;54.018;9.300;2023-05-07T05:39:55;10.60;99.90
31046;DHT22;17711;54.018;9.300;2023-05-07T05:42:23;10.60;99.90
31046;DHT22;17711;54.018;9.300;2023-05-07T05:44:52;10.60;99.90
31046;DHT22;17711;54.018;9.300;2023-05-07T05:47:20;10.70;99.90
31046;DHT22;17711;54.018;9.300;2023-05-07T05:49:49;10.70;99.90
31046;DHT22;17711;54.018;9.300;2023-05-07T05:52:17;10.70;99.90
31046;DHT22;17711;54.018;9.300;2023-05-07T05:54:46;10.70;99.90
31046;DHT22;17711;54.018;9.300;2023-05-07T05:57:16;10.70;99.90
31046;DHT22;17711;54.018;9.300;2023-05-07T05:59:44;10.70;99.90
31046;DHT22;17711;54.018;9.300;2023-05-07T06:02:14;10.80;99.90
31046;DHT22;17711;54.018;9.300;2023-05-07T06:04:43;10.80;99.90
31046;DHT22;17711;54.018;9.300;2023-05-07T06:07:12;10.90;99.90
31046;DHT22;17711;54.018;9.300;2023-05-07T06:09:41;10.90;99.90
31046;DHT22;17711;54.018;9.300;2023-05-07T06:12:09;10.90;99.90
31046;DHT22;17711;54.018;9.300;2023-05-07T06:14:39;11.00;99.90
31046;DHT22;17711;54.018;9.300;2023-05-07T06:17:08;11.00;99.90
31046;DHT22;17711;54.018;9.300;2023-05-07T06:19:37;11.00;99.90
31046;DHT22;17711;54.018;9.300;2023-05-07T06:22:05;11.00;99.90
31046;DHT22;17711;54.018;9.300;2023-05-07T06:24:34;11.00;99.90
31046;DHT22;17711;54.018;9.300;2023-05-07T06:27:03;11.00;99.90
31046;DHT22;17711;54.018;9.300;2023-05-07T06:29:32;11.10;99.90
31046;DHT22;17711;54.018;9.300;2023-05-07T06:32:08;11.10;99.90
31046;DHT22;17711;54.018;9.300;2023-05-07T06:34:38;11.10;99.90
31046;DHT22;17711;54.018;9.300;2023-05-07T06:37:07;11.20;99.90
31046;DHT22;17711;54.018;9.300;2023-05-07T06:39:36;11.20;99.90
31046;DHT22;17711;54.018;9.300;2023-05-07T06:42:04;11.20;99.90
31046;DHT22;17711;54.018;9.300;2023-05-07T06:44:33;11.30;99.90
31046;DHT22;17711;54.018;9.300;2023-05-07T06:47:02;11.30;99.90
31046;DHT22;17711;54.018;9.300;2023-05-07T06:49:33;11.40;99.90
31046;DHT22;17711;54.018;9.300;2023-05-07T06:52:02;11.50;99.90
31046;DHT22;17711;54.018;9.300;2023-05-07T06:54:31;11.60;99.90
31046;DHT22;17711;54.018;9.300;2023-05-07T06:56:59;11.60;99.90
31046;DHT22;17711;54.018;9.300;2023-05-07T06:59:28;11.60;99.90
31046;DHT22;17711;54.018;9.300;2023-05-07T07:01:57;11.50;99.90
31046;DHT22;17711;54.018;9.300;2023-05-07T07:04:25;11.60;99.90
31046;DHT22;17711;54.018;9.300;2023-05-07T07:06:56;11.60;99.90
31046;DHT22;17711;54.018;9.300;2023-05-07T07:09:26;11.70;99.90
31046;DHT22;17711;54.018;9.300;2023-05-07T07:11:55;11.70;99.90
31046;DHT22;17711;54.018;9.300;2023-05-07T07:14:24;11.80;99.90
31046;DHT22;17711;54.018;9.300;2023-05-07T07:16:53;11.90;99.90
31046;DHT22;17711;54.018;9.300;2023-05-07T07:19:22;12.00;99.90
31046;DHT22;17711;54.018;9.300;2023-05-07T07:21:50;12.10;99.90
31046;DHT22;17711;54.018;9.300;2023-05-07T07:24:20;12.30;99.90
31046;DHT22;17711;54.018;9.300;2023-05-07T07:26:49;12.30;99.90
31046;DHT22;17711;54.018;9.300;2023-05-07T07:29:17;12.30;99.90
31046;DHT22;17711;54.018;9.300;2023-05-07T07:31:47;12.30;99.90
31046;DHT22;17711;54.018;9.300;2023-05-07T07:34:16;12.40;99.90
31046;DHT22;17711;54.018;9.300;2023-05-07T07:36:46;12.40;99.90
31046;DHT22;17711;54.018;9.300;2023-05-07T07:39:14;12.30;99.90
31046;DHT22;17711;54.018;9.300;2023-05-07T07:41:44;12.30;99.90
31046;DHT22;17711;54.018;9.300;2023-05-07T07:44:13;12.30;99.90
31046;DHT22;17711;54.018;9.300;2023-05-07T07:46:42;12.40;99.90
31046;DHT22;17711;54.018;9.300;2023-05-07T07:49:11;12.50;99.90
31046;DHT22;17711;54.018;9.300;2023-05-07T07:51:39;12.80;99.90
31046;DHT22;17711;54.018;9.300;2023-05-07T07:54:08;13.10;99.90
31046;DHT22;17711;54.018;9.300;2023-05-07T07:56:37;13.30;99.90
31046;DHT22;17711;54.018;9.300;2023-05-07T07:59:07;13.40;99.90
31046;DHT22;17711;54.018;9.300;2023-05-07T08:01:37;13.40;99.90
31046;DHT22;17711;54.018;9.300;2023-05-07T08:04:06;13.40;99.90
31046;DHT22;17711;54.018;9.300;2023-05-07T08:06:35;13.20;99.90
31046;DHT22;17711;54.018;9.300;2023-05-07T08:09:04;13.10;99.90
31046;DHT22;17711;54.018;9.300;2023-05-07T08:11:32;13.00;99.90
31046;DHT22;17711;54.018;9.300;2023-05-07T08:14:01;13.10;99.90
31046;DHT22;17711;54.018;9.300;2023-05-07T08:16:31;13.20;99.90
31046;DHT22;17711;54.018;9.300;2023-05-07T08:19:00;13.30;99.90
31046;DHT22;17711;54.018;9.300;2023-05-07T08:21:30;13.40;99.90
31046;DHT22;17711;54.018;9.300;2023-05-07T08:24:00;13.40;99.90
31046;DHT22;17711;54.018;9.300;2023-05-07T08:26:29;13.60;99.90
31046;DHT22;17711;54.018;9.300;2023-05-07T08:28:58;13.90;99.90
31046;DHT22;17711;54.018;9.300;2023-05-07T08:31:27;14.10;99.90
31046;DHT22;17711;54.018;9.300;2023-05-07T08:33:57;14.40;99.90
31046;DHT22;17711;54.018;9.300;2023-05-07T08:36:26;14.50;99.90
31046;DHT22;17711;54.018;9.300;2023-05-07T08:38:55;14.60;99.90
31046;DHT22;17711;54.018;9.300;2023-05-07T08:41:24;14.70;99.90
31046;DHT22;17711;54.018;9.300;2023-05-07T08:43:54;14.70;99.90
31046;DHT22;17711;54.018;9.300;2023-05-07T08:46:31;14.70;99.90
31046;DHT22;17711;54.018;9.300;2023-05-07T08:49:02;14.80;99.90
31046;DHT22;17711;54.018;9.300;2023-05-07T08:51:31;14.90;99.90
31046;DHT22;17711;54.018;9.300;2023-05-07T08:54:01;15.00;99.90
31046;DHT22;17711;54.018;9.300;2023-05-07T08:56:31;15.00;99.90
31046;DHT22;17711;54.018;9.300;2023-05-07T08:58:59;15.00;99.90
31046;DHT22;17711;54.018;9.300;2023-05-07T09:01:28;14.90;99.90
31046;DHT22;17711;54.018;9.300;2023-05-07T09:03:57;14.80;99.90
31046;DHT22;17711;54.018;9.300;2023-05-07T09:06:27;14.80;99.90
31046;DHT22;17711;54.018;9.300;2023-05-07T09:08:57;14.60;99.90
31046;DHT22;17711;54.018;9.300;2023-05-07T09:11:28;14.60;99.90
31046;DHT22;17711;54.018;9.300;2023-05-07T09:13:57;14.60;99.90
31046;DHT22;17711;54.018;9.300;2023-05-07T09:16:29;14.70;99.90
31046;DHT22;17711;54.018;9.300;2023-05-07T09:18:59;14.80;99.90
31046;DHT22;17711;54.018;9.300;2023-05-07T09:21:29;14.80;99.90
31046;DHT22;17711;54.018;9.300;2023-05-07T09:23:58;14.70;99.90
31046;DHT22;17711;54.018;9.300;2023-05-07T09:26:27;14.70;99.90
31046;DHT22;17711;54.018;9.300;2023-05-07T09:28:57;14.90;99.90
31046;DHT22;17711;54.018;9.300;2023-05-07T09:31:26;15.10;99.90
31046;DHT22;17711;54.018;9.300;2023-05-07T09:33:56;15.30;99.90
31046;DHT22;17711;54.018;9.300;2023-05-07T09:36:28;15.40;99.90
31046;DHT22;17711;54.018;9.300;2023-05-07T09:39:00;15.70;99.90
31046;DHT22;17711;54.018;9.300;2023-05-07T09:41:30;16.20;99.90
31046;DHT22;17711;54.018;9.300;2023-05-07T09:43:59;16.90;99.90
31046;DHT22;17711;54.018;9.300;2023-05-07T09:46:30;17.10;99.90
31046;DHT22;17711;54.018;9.300;2023-05-07T09:49:02;17.20;99.90
31046;DHT22;17711;54.018;9.300;2023-05-07T09:51:39;16.90;99.90
31046;DHT22;17711;54.018;9.300;2023-05-07T09:54:10;16.60;99.90
31046;DHT22;17711;54.018;9.300;2023-05-07T09:56:39;16.40;99.90
31046;DHT22;17711;54.018;9.300;2023-05-07T09:59:12;16.10;99.90
31046;DHT22;17711;54.018;9.300;2023-05-07T10:01:42;16.00;99.90
31046;DHT22;17711;54.018;9.300;2023-05-07T10:04:12;16.00;99.90
31046;DHT22;17711;54.018;9.300;2023-05-07T10:06:43;16.00;99.90
31046;DHT22;17711;54.018;9.300;2023-05-07T10:09:14;16.10;99.90
31046;DHT22;17711;54.018;9.300;2023-05-07T10:11:44;16.30;99.90
31046;DHT22;17711;54.018;9.300;2023-05-07T10:14:14;16.60;99.90
31046;DHT22;17711;54.018;9.300;2023-05-07T10:16:43;17.00;99.90
31046;DHT22;17711;54.018;9.300;2023-05-07T10:19:12;17.30;99.90
31046;DHT22;17711;54.018;9.300;2023-05-07T10:21:44;17.50;99.90
31046;DHT22;17711;54.018;9.300;2023-05-07T10:24:20;18.10;99.90
31046;DHT22;17711;54.018;9.300;2023-05-07T10:26:52;18.60;99.90
31046;DHT22;17711;54.018;9.300;2023-05-07T10:29:30;18.70;99.90
31046;DHT22;17711;54.018;9.300;2023-05-07T10:32:15;19.00;99.90
31046;DHT22;17711;54.018;9.300;2023-05-07T10:34:50;18.80;99.90
31046;DHT22;17711;54.018;9.300;2023-05-07T10:37:24;18.70;99.90
31046;DHT22;17711;54.018;9.300;2023-05-07T10:39:53;18.40;99.90
31046;DHT22;17711;54.018;9.300;2023-05-07T10:42:21;18.20;99.90
31046;DHT22;17711;54.018;9.300;2023-05-07T10:44:50;18.20;99.90
31046;DHT22;17711;54.018;9.300;2023-05-07T10:47:19;18.30;99.90
31046;DHT22;17711;54.018;9.300;2023-05-07T10:50:20;19.40;99.90
31046;DHT22;17711;54.018;9.300;2023-05-07T10:53:25;19.80;99.90
31046;DHT22;17711;54.018;9.300;2023-05-07T10:56:23;19.40;99.90
31046;DHT22;17711;54.018;9.300;2023-05-07T10:58:53;19.00;99.90
31046;DHT22;17711;54.018;9.300;2023-05-07T11:01:49;19.20;99.90
31046;DHT22;17711;54.018;9.300;2023-05-07T11:04:18;19.60;99.90
31046;DHT22;17711;54.018;9.300;2023-05-07T11:07:21;20.70;99.90
31046;DHT22;17711;54.018;9.300;2023-05-07T11:10:11;22.60;99.90
31046;DHT22;17711;54.018;9.300;2023-05-07T11:13:03;23.10;99.90
31046;DHT22;17711;54.018;9.300;2023-05-07T11:15:43;22.30;99.90
31046;DHT22;17711;54.018;9.300;2023-05-07T11:18:14;21.30;99.90
31046;DHT22;17711;54.018;9.300;2023-05-07T11:20:56;20.40;99.90
31046;DHT22;17711;54.018;9.300;2023-05-07T11:26:16;19.40;99.90
31046;DHT22;17711;54.018;9.300;2023-05-07T11:28:45;19.30;99.90
31046;DHT22;17711;54.018;9.300;2023-05-07T11:31:14;19.20;99.90
31046;DHT22;17711;54.018;9.300;2023-05-07T11:33:44;19.50;99.90
31046;DHT22;17711;54.018;9.300;2023-05-07T11:36:12;19.80;99.90
31046;DHT22;17711;54.018;9.300;2023-05-07T11:38:41;20.40;99.90
31046;DHT22;17711;54.018;9.300;2023-05-07T11:41:09;22.00;99.90
31046;DHT22;17711;54.018;9.300;2023-05-07T11:43:54;23.60;99.90
31046;DHT22;17711;54.018;9.300;2023-05-07T11:46:23;25.00;99.90
31046;DHT22;17711;54.018;9.300;2023-05-07T11:48:52;25.20;68.50
31046;DHT22;17711;54.018;9.300;2023-05-07T11:51:22;24.40;84.10
31046;DHT22;17711;54.018;9.300;2023-05-07T11:53:50;23.80;69.60
31046;DHT22;17711;54.018;9.300;2023-05-07T11:56:19;23.70;80.70
31046;DHT22;17711;54.018;9.300;2023-05-07T11:58:49;24.30;99.90
31046;DHT22;17711;54.018;9.300;2023-05-07T12:01:19;25.10;99.90
31046;DHT22;17711;54.018;9.300;2023-05-07T12:03:47;25.20;79.40
31046;DHT22;17711;54.018;9.300;2023-05-07T12:06:16;26.00;80.80
31046;DHT22;17711;54.018;9.300;2023-05-07T12:08:46;26.80;69.50
31046;DHT22;17711;54.018;9.300;2023-05-07T12:11:16;27.20;66.80
31046;DHT22;17711;54.018;9.300;2023-05-07T12:13:45;27.30;73.30
31046;DHT22;17711;54.018;9.300;2023-05-07T12:16:15;27.10;62.90
31046;DHT22;17711;54.018;9.300;2023-05-07T12:18:44;26.90;57.80
31046;DHT22;17711;54.018;9.300;2023-05-07T12:21:13;27.00;57.80
31046;DHT22;17711;54.018;9.300;2023-05-07T12:23:43;27.50;55.40
31046;DHT22;17711;54.018;9.300;2023-05-07T12:26:12;27.50;51.20
31046;DHT22;17711;54.018;9.300;2023-05-07T12:28:41;27.10;59.60
31046;DHT22;17711;54.018;9.300;2023-05-07T12:31:09;27.30;57.70
31046;DHT22;17711;54.018;9.300;2023-05-07T12:33:40;27.80;55.90
31046;DHT22;17711;54.018;9.300;2023-05-07T12:36:09;28.00;53.40
31046;DHT22;17711;54.018;9.300;2023-05-07T12:38:40;28.40;51.30
31046;DHT22;17711;54.018;9.300;2023-05-07T12:41:10;28.10;51.40
31046;DHT22;17711;54.018;9.300;2023-05-07T12:43:39;28.20;50.00
31046;DHT22;17711;54.018;9.300;2023-05-07T12:46:08;28.50;52.60
31046;DHT22;17711;54.018;9.300;2023-05-07T12:48:44;29.00;48.40
31046;DHT22;17711;54.018;9.300;2023-05-07T12:51:13;29.40;48.00
31046;DHT22;17711;54.018;9.300;2023-05-07T12:53:43;29.60;47.10
31046;DHT22;17711;54.018;9.300;2023-05-07T12:56:11;29.80;43.90
31046;DHT22;17711;54.018;9.300;2023-05-07T12:58:40;29.90;45.50
31046;DHT22;17711;54.018;9.300;2023-05-07T13:01:09;29.70;44.20
31046;DHT22;17711;54.018;9.300;2023-05-07T13:03:48;29.40;44.00
31046;DHT22;17711;54.018;9.300;2023-05-07T13:06:17;29.40;49.40
31046;DHT22;17711;54.018;9.300;2023-05-07T13:08:46;29.50;46.40
31046;DHT22;17711;54.018;9.300;2023-05-07T13:11:14;29.90;44.70
31046;DHT22;17711;54.018;9.300;2023-05-07T13:13:43;29.90;43.80
31046;DHT22;17711;54.018;9.300;2023-05-07T13:16:11;29.80;42.50
31046;DHT22;17711;54.018;9.300;2023-05-07T13:18:40;29.60;42.50
31046;DHT22;17711;54.018;9.300;2023-05-07T13:21:12;29.20;47.80
31046;DHT22;17711;54.018;9.300;2023-05-07T13:23:41;29.10;46.50
31046;DHT22;17711;54.018;9.300;2023-05-07T13:26:10;29.10;46.50
31046;DHT22;17711;54.018;9.300;2023-05-07T13:28:52;28.90;42.30
31046;DHT22;17711;54.018;9.300;2023-05-07T13:31:20;28.50;44.50
31046;DHT22;17711;54.018;9.300;2023-05-07T13:33:49;28.70;49.00
31046;DHT22;17711;54.018;9.300;2023-05-07T13:36:19;28.50;42.60
31046;DHT22;17711;54.018;9.300;2023-05-07T13:38:47;28.20;41.00
31046;DHT22;17711;54.018;9.300;2023-05-07T13:41:16;28.10;49.20
31046;DHT22;17711;54.018;9.300;2023-05-07T13:43:45;28.00;40.80
31046;DHT22;17711;54.018;9.300;2023-05-07T13:46:14;28.00;48.80
31046;DHT22;17711;54.018;9.300;2023-05-07T13:48:43;28.20;50.80
31046;DHT22;17711;54.018;9.300;2023-05-07T13:51:15;28.40;47.40
31046;DHT22;17711;54.018;9.300;2023-05-07T13:53:52;28.40;53.30
31046;DHT22;17711;54.018;9.300;2023-05-07T13:56:21;28.50;47.40
31046;DHT22;17711;54.018;9.300;2023-05-07T13:58:50;28.30;45.20
31046;DHT22;17711;54.018;9.300;2023-05-07T14:01:26;28.30;47.70
31046;DHT22;17711;54.018;9.300;2023-05-07T14:03:56;27.60;43.60
31046;DHT22;17711;54.018;9.300;2023-05-07T14:06:25;27.00;45.80
31046;DHT22;17711;54.018;9.300;2023-05-07T14:08:55;26.70;48.30
31046;DHT22;17711;54.018;9.300;2023-05-07T14:11:25;26.80;52.50
31046;DHT22;17711;54.018;9.300;2023-05-07T14:13:53;27.20;57.10
31046;DHT22;17711;54.018;9.300;2023-05-07T14:16:23;27.40;57.10
31046;DHT22;17711;54.018;9.300;2023-05-07T14:18:52;27.30;52.30
31046;DHT22;17711;54.018;9.300;2023-05-07T14:21:24;27.30;56.50
31046;DHT22;17711;54.018;9.300;2023-05-07T14:23:52;27.20;58.00
31046;DHT22;17711;54.018;9.300;2023-05-07T14:26:25;27.10;53.80
31046;DHT22;17711;54.018;9.300;2023-05-07T14:28:54;27.10;52.40
31046;DHT22;17711;54.018;9.300;2023-05-07T14:31:24;27.10;61.10
31046;DHT22;17711;54.018;9.300;2023-05-07T14:33:53;27.00;54.40
31046;DHT22;17711;54.018;9.300;2023-05-07T14:36:21;26.70;55.80
31046;DHT22;17711;54.018;9.300;2023-05-07T14:38:53;26.80;63.40
31046;DHT22;17711;54.018;9.300;2023-05-07T14:41:23;26.70;50.00
31046;DHT22;17711;54.018;9.300;2023-05-07T14:43:52;26.60;53.30
31046;DHT22;17711;54.018;9.300;2023-05-07T14:46:21;26.40;57.10
31046;DHT22;17711;54.018;9.300;2023-05-07T14:48:51;26.30;78.30
31046;DHT22;17711;54.018;9.300;2023-05-07T14:51:20;26.10;61.70
31046;DHT22;17711;54.018;9.300;2023-05-07T14:53:50;26.10;83.30
31046;DHT22;17711;54.018;9.300;2023-05-07T14:56:19;25.90;64.90
31046;DHT22;17711;54.018;9.300;2023-05-07T14:58:49;25.90;93.40
31046;DHT22;17711;54.018;9.300;2023-05-07T15:01:17;25.60;55.50
31046;DHT22;17711;54.018;9.300;2023-05-07T15:03:46;25.40;65.80
31046;DHT22;17711;54.018;9.300;2023-05-07T15:06:15;25.40;67.40
31046;DHT22;17711;54.018;9.300;2023-05-07T15:08:43;24.90;69.00
31046;DHT22;17711;54.018;9.300;2023-05-07T15:11:12;24.80;90.00
31046;DHT22;17711;54.018;9.300;2023-05-07T15:13:42;24.80;60.90
31046;DHT22;17711;54.018;9.300;2023-05-07T15:16:12;24.30;92.00
31046;DHT22;17711;54.018;9.300;2023-05-07T15:18:41;23.90;81.80
31046;DHT22;17711;54.018;9.300;2023-05-07T15:21:09;23.60;98.10
31046;DHT22;17711;54.018;9.300;2023-05-07T15:23:38;23.60;99.90
31046;DHT22;17711;54.018;9.300;2023-05-07T15:26:08;23.50;99.90
31046;DHT22;17711;54.018;9.300;2023-05-07T15:28:37;23.40;93.60
31046;DHT22;17711;54.018;9.300;2023-05-07T15:31:06;23.10;99.90
31046;DHT22;17711;54.018;9.300;2023-05-07T15:33:37;22.80;99.90
31046;DHT22;17711;54.018;9.300;2023-05-07T15:36:08;22.60;99.90
31046;DHT22;17711;54.018;9.300;2023-05-07T15:38:37;22.20;99.90
31046;DHT22;17711;54.018;9.300;2023-05-07T15:41:05;22.00;99.90
31046;DHT22;17711;54.018;9.300;2023-05-07T15:43:37;21.90;99.90
31046;DHT22;17711;54.018;9.300;2023-05-07T15:46:11;21.80;99.90
31046;DHT22;17711;54.018;9.300;2023-05-07T15:48:41;22.00;99.90
31046;DHT22;17711;54.018;9.300;2023-05-07T15:51:10;22.20;99.90